Time;durP1;ratioP1;P1;durP2;ratioP2;P2;SDS_P1;SDS_P2;PMS_P1;PMS_P2;Temp;Humidity;BMP_temperature;BMP_pressure;BME280_temperature;BME280_humidity;BME280_pressure;Samples;Min_cycle;Max_cycle;Signal;HPM_P1;HPM_P2
2022/07/14 00:01:10;;;;;;;0.20;0.20;;;21.70;95.50;;;;;;4460708;32;20120;-65
2022/07/14 00:03:36;;;;;;;0.30;0.30;;;21.70;95.80;;;;;;4446766;32;20061;-65
2022/07/14 00:06:01;;;;;;;0.40;0.40;;;21.60;96.10;;;;;;4460942;32;20114;-65
2022/07/14 00:08:27;;;;;;;0.20;0.20;;;21.40;96.30;;;;;;4446966;32;20075;-65
2022/07/14 00:10:52;;;;;;;1.65;0.40;;;21.40;96.70;;;;;;4460774;32;20611;-65
2022/07/14 00:13:18;;;;;;;0.30;0.30;;;21.40;96.90;;;;;;4457966;32;20072;-65
2022/07/14 00:15:43;;;;;;;0.40;0.40;;;21.30;97.00;;;;;;4445379;32;20123;-65
2022/07/14 00:18:09;;;;;;;0.20;0.20;;;21.30;96.90;;;;;;4443847;32;20136;-65
2022/07/14 00:20:34;;;;;;;0.20;0.20;;;21.30;96.90;;;;;;4442261;32;20101;-65
2022/07/14 00:23:01;;;;;;;0.20;0.20;;;21.10;97.20;;;;;;4409332;32;20494;-65
2022/07/14 00:25:27;;;;;;;0.40;0.40;;;21.10;97.20;;;;;;4434844;32;20065;-65
2022/07/14 00:27:54;;;;;;;0.55;0.37;;;21.10;97.50;;;;;;4444318;32;20081;-65
2022/07/14 00:30:20;;;;;;;4.70;1.75;;;21.00;97.50;;;;;;4444595;32;20061;-65
2022/07/14 00:32:46;;;;;;;0.40;0.40;;;21.00;97.60;;;;;;4429996;32;20068;-65
2022/07/14 00:35:11;;;;;;;0.30;0.30;;;21.00;97.90;;;;;;4417527;32;20077;-65
2022/07/14 00:37:37;;;;;;;1.17;0.47;;;20.90;97.90;;;;;;4430006;32;20065;-65
2022/07/14 00:40:04;;;;;;;0.30;0.30;;;20.90;98.00;;;;;;4430350;32;20481;-65
2022/07/14 00:42:47;;;;;;;0.85;0.43;;;20.80;98.40;;;;;;4443359;32;20076;-65
2022/07/14 00:45:16;;;;;;;0.25;0.25;;;20.80;98.40;;;;;;4445104;32;20069;-65
2022/07/14 00:47:42;;;;;;;2.30;0.40;;;20.70;98.60;;;;;;4431049;32;20116;-65
2022/07/14 00:50:10;;;;;;;0.30;0.30;;;20.70;98.90;;;;;;4444680;32;20081;-65
2022/07/14 00:52:35;;;;;;;0.30;0.30;;;20.70;98.90;;;;;;4399530;32;20135;-65
2022/07/14 00:55:00;;;;;;;0.90;0.40;;;20.70;98.80;;;;;;4429690;32;20128;-65
2022/07/14 00:57:26;;;;;;;0.30;0.30;;;20.70;98.90;;;;;;4444037;32;20073;-65
2022/07/14 00:59:52;;;;;;;0.25;0.25;;;20.70;99.10;;;;;;4444620;32;20065;-65
2022/07/14 01:02:19;;;;;;;0.15;0.15;;;20.60;99.30;;;;;;4430405;32;20064;-65
2022/07/14 01:04:45;;;;;;;0.65;0.32;;;20.50;99.50;;;;;;4430391;32;20065;-65
2022/07/14 01:07:12;;;;;;;0.90;0.82;;;20.50;99.70;;;;;;4443466;32;20061;-65
2022/07/14 01:09:39;;;;;;;0.35;0.22;;;20.50;99.60;;;;;;4430414;32;20434;-65
2022/07/14 01:12:05;;;;;;;0.30;0.30;;;20.50;99.60;;;;;;4445142;32;20119;-65
2022/07/14 01:14:30;;;;;;;0.30;0.30;;;20.50;99.80;;;;;;4434766;32;20077;-65
2022/07/14 01:16:57;;;;;;;0.30;0.30;;;20.30;99.90;;;;;;4429406;32;20121;-65
2022/07/14 01:19:24;;;;;;;0.32;0.30;;;20.20;99.90;;;;;;4414813;32;20132;-65
2022/07/14 01:21:53;;;;;;;0.30;0.30;;;20.20;99.90;;;;;;4414825;32;20069;-65
2022/07/14 01:24:18;;;;;;;0.20;0.20;;;20.10;99.90;;;;;;4410944;32;20073;-65
2022/07/14 01:26:44;;;;;;;0.40;0.40;;;20.10;99.90;;;;;;4429955;32;20138;-65
2022/07/14 01:29:09;;;;;;;0.20;0.20;;;20.10;99.90;;;;;;4430770;32;20061;-65
2022/07/14 01:31:35;;;;;;;0.30;0.30;;;20.00;99.90;;;;;;4428580;32;82104;-65
2022/07/14 01:34:00;;;;;;;0.30;0.30;;;20.00;99.90;;;;;;4416785;32;20069;-65
2022/07/14 01:36:26;;;;;;;0.65;0.40;;;20.00;99.90;;;;;;4432226;32;20233;-65
2022/07/14 01:38:52;;;;;;;0.30;0.30;;;19.80;99.90;;;;;;4417058;32;20069;-65
2022/07/14 01:41:19;;;;;;;1.37;0.55;;;19.70;99.90;;;;;;4416821;32;20125;-65
2022/07/14 01:43:44;;;;;;;0.30;0.30;;;19.70;99.90;;;;;;4424825;32;20065;-65
2022/07/14 01:46:10;;;;;;;0.30;0.30;;;19.70;99.90;;;;;;4432086;32;20132;-65
2022/07/14 01:48:35;;;;;;;0.98;0.37;;;19.80;99.90;;;;;;4431869;32;20131;-65
2022/07/14 01:51:01;;;;;;;1.20;0.37;;;19.80;99.90;;;;;;4427190;32;20082;-65
2022/07/14 01:53:27;;;;;;;0.25;0.25;;;19.70;99.90;;;;;;4426242;32;21022;-65
2022/07/14 01:55:52;;;;;;;4.22;0.50;;;19.60;99.90;;;;;;4439461;32;20069;-65
2022/07/14 01:58:18;;;;;;;0.30;0.30;;;19.50;99.90;;;;;;4446896;32;20073;-65
2022/07/14 02:00:43;;;;;;;2.10;0.35;;;19.60;99.90;;;;;;4447420;32;20061;-65
2022/07/14 02:03:09;;;;;;;0.30;0.30;;;19.60;99.90;;;;;;4447105;32;20064;-65
2022/07/14 02:05:34;;;;;;;0.35;0.35;;;19.40;99.90;;;;;;4447248;32;20465;-65
2022/07/14 02:08:00;;;;;;;0.30;0.30;;;19.50;99.90;;;;;;4434956;32;20078;-65
2022/07/14 02:12:25;;;;;;;0.30;0.30;;;19.30;99.90;;;;;;4430222;32;20062;-65
2022/07/14 02:13:11;;;;;;;0.45;0.45;;;19.40;99.90;;;;;;4419145;32;20073;-65
2022/07/14 02:15:36;;;;;;;0.20;0.20;;;19.40;99.90;;;;;;4447036;32;20077;-65
2022/07/14 02:18:02;;;;;;;6.30;0.50;;;19.30;99.90;;;;;;4446492;32;20069;-65
2022/07/14 02:20:27;;;;;;;0.45;0.37;;;19.30;99.90;;;;;;4417535;32;20061;-65
2022/07/14 02:22:53;;;;;;;0.20;0.20;;;19.30;99.90;;;;;;4425972;32;20073;-65
2022/07/14 02:25:18;;;;;;;0.30;0.30;;;19.20;99.90;;;;;;4435707;32;20465;-65
2022/07/14 02:27:44;;;;;;;0.45;0.45;;;19.20;99.90;;;;;;4433011;32;20072;-65
2022/07/14 02:30:10;;;;;;;1.10;0.82;;;19.00;99.90;;;;;;4446300;32;20108;-65
2022/07/14 02:32:35;;;;;;;0.52;0.52;;;19.00;99.90;;;;;;4447150;32;20070;-65
2022/07/14 02:35:00;;;;;;;0.55;0.35;;;18.90;99.90;;;;;;4446302;32;20077;-65
2022/07/14 02:37:26;;;;;;;0.30;0.30;;;19.00;99.90;;;;;;4437808;32;20066;-65
2022/07/14 02:39:51;;;;;;;0.37;0.37;;;18.80;99.90;;;;;;4430825;32;20082;-65
2022/07/14 02:42:17;;;;;;;0.30;0.30;;;18.80;99.90;;;;;;4431019;32;20595;-65
2022/07/14 02:44:42;;;;;;;0.30;0.30;;;18.80;99.90;;;;;;4439798;32;20061;-65
2022/07/14 02:47:08;;;;;;;0.25;0.25;;;18.70;99.90;;;;;;4446848;32;20060;-65
2022/07/14 02:49:33;;;;;;;0.28;0.28;;;18.70;99.90;;;;;;4446769;32;20418;-65
2022/07/14 02:51:59;;;;;;;0.40;0.40;;;18.70;99.90;;;;;;4431249;32;20178;-65
2022/07/14 02:54:24;;;;;;;0.20;0.20;;;18.60;99.90;;;;;;4428684;32;20596;-65
2022/07/14 02:56:50;;;;;;;0.40;0.40;;;18.60;99.90;;;;;;4445350;32;20073;-65
2022/07/14 02:59:16;;;;;;;0.30;0.28;;;18.60;99.90;;;;;;4446269;32;20415;-65
2022/07/14 03:01:41;;;;;;;5.68;0.60;;;18.60;99.90;;;;;;4445593;32;20065;-65
2022/07/14 03:04:07;;;;;;;0.25;0.22;;;18.50;99.90;;;;;;4446503;32;20120;-65
2022/07/14 03:06:32;;;;;;;0.37;0.37;;;18.40;99.90;;;;;;4444996;32;20078;-65
2022/07/14 03:08:58;;;;;;;0.15;0.15;;;18.40;99.90;;;;;;4445883;32;20061;-65
2022/07/14 03:11:23;;;;;;;0.88;0.73;;;18.30;99.90;;;;;;4446093;32;20065;-65
2022/07/14 03:13:49;;;;;;;0.25;0.25;;;18.20;99.90;;;;;;4445964;32;20065;-65
2022/07/14 03:16:15;;;;;;;0.30;0.30;;;18.30;99.90;;;;;;4434640;32;20081;-65
2022/07/14 03:18:40;;;;;;;0.45;0.45;;;18.40;99.90;;;;;;4429710;32;20084;-65
2022/07/14 03:21:08;;;;;;;0.13;0.13;;;18.20;99.90;;;;;;4410081;32;20093;-65
2022/07/14 03:23:34;;;;;;;0.30;0.30;;;18.10;99.90;;;;;;4409978;32;20112;-65
2022/07/14 03:26:00;;;;;;;0.47;0.47;;;18.00;99.90;;;;;;4410345;32;20077;-65
2022/07/14 03:28:25;;;;;;;0.20;0.20;;;17.90;99.90;;;;;;4429977;32;20060;-65
2022/07/14 03:30:55;;;;;;;0.30;0.30;;;17.90;99.90;;;;;;4416177;32;20069;-65
2022/07/14 03:33:21;;;;;;;6.97;0.45;;;17.90;99.90;;;;;;4429528;32;20070;-65
2022/07/14 03:35:48;;;;;;;2.75;0.82;;;18.00;99.90;;;;;;4430465;32;20073;-65
2022/07/14 03:38:13;;;;;;;3.20;0.60;;;18.00;99.90;;;;;;4429015;32;20089;-65
2022/07/14 03:40:39;;;;;;;0.57;0.57;;;18.10;99.90;;;;;;4445440;32;20402;-65
2022/07/14 03:43:04;;;;;;;0.35;0.35;;;18.00;99.90;;;;;;4431759;32;20085;-65
2022/07/14 03:45:30;;;;;;;0.30;0.30;;;18.00;99.90;;;;;;4451775;32;20065;-65
2022/07/14 03:47:56;;;;;;;2.92;0.95;;;17.80;99.90;;;;;;4460896;32;20076;-65
2022/07/14 03:50:21;;;;;;;0.62;0.52;;;17.80;99.90;;;;;;4460086;32;20068;-65
2022/07/14 03:52:46;;;;;;;1.60;0.70;;;17.80;99.90;;;;;;4440649;32;20115;-65
2022/07/14 03:55:13;;;;;;;1.55;0.93;;;17.70;99.90;;;;;;4447538;32;20077;-65
2022/07/14 03:57:38;;;;;;;0.30;0.30;;;17.80;99.90;;;;;;4460911;32;20520;-66
2022/07/14 04:00:05;;;;;;;0.95;0.73;;;17.70;99.90;;;;;;4446173;32;20072;-65
2022/07/14 04:02:31;;;;;;;1.55;0.93;;;17.70;99.90;;;;;;4460155;32;20123;-65
2022/07/14 04:04:56;;;;;;;2.05;1.12;;;17.60;99.90;;;;;;4452614;32;20124;-65
2022/07/14 04:07:22;;;;;;;0.40;0.40;;;17.40;99.90;;;;;;4416183;32;20086;-65
2022/07/14 04:09:49;;;;;;;0.30;0.30;;;17.40;99.90;;;;;;4428885;32;20081;-65
2022/07/14 04:12:15;;;;;;;0.30;0.30;;;17.50;99.90;;;;;;4428934;32;20116;-65
2022/07/14 04:14:41;;;;;;;0.37;0.37;;;17.40;99.90;;;;;;4414508;32;20447;-65
2022/07/14 04:17:06;;;;;;;1.75;0.60;;;17.40;99.90;;;;;;4430841;32;20234;-65
2022/07/14 04:19:32;;;;;;;0.30;0.30;;;17.30;99.90;;;;;;4434116;32;20089;-65
2022/07/14 04:21:57;;;;;;;1.50;0.73;;;17.30;99.90;;;;;;4417555;32;20081;-65
2022/07/14 04:24:23;;;;;;;1.65;1.10;;;17.20;99.90;;;;;;4407862;32;20407;-65
2022/07/14 04:26:48;;;;;;;0.60;0.30;;;17.20;99.90;;;;;;4415318;32;20120;-65
2022/07/14 04:29:14;;;;;;;0.20;0.20;;;17.10;99.90;;;;;;4431667;32;20524;-65
2022/07/14 04:31:39;;;;;;;0.22;0.22;;;17.10;99.90;;;;;;4444743;32;20128;-65
2022/07/14 04:34:05;;;;;;;0.30;0.30;;;17.10;99.90;;;;;;4444750;32;20085;-65
2022/07/14 04:36:30;;;;;;;1.40;0.95;;;17.00;99.90;;;;;;4430721;32;20469;-65
2022/07/14 04:38:57;;;;;;;0.40;0.40;;;17.10;99.90;;;;;;4429839;32;20101;-66
2022/07/14 04:41:23;;;;;;;0.43;0.30;;;17.10;99.90;;;;;;4423053;32;20065;-65
2022/07/14 04:43:49;;;;;;;0.77;0.60;;;16.90;99.90;;;;;;4430748;32;20077;-66
2022/07/14 04:46:14;;;;;;;0.40;0.40;;;17.00;99.90;;;;;;4431211;32;20456;-66
2022/07/14 04:52:25;;;;;;;17.55;0.77;;;17.00;99.90;;;;;;4410434;32;20262;-66
2022/07/14 04:54:11;;;;;;;4.78;2.08;;;17.10;99.90;;;;;;4402817;32;20077;-66
2022/07/14 04:56:36;;;;;;;7.75;0.70;;;17.10;99.90;;;;;;4441686;32;20081;-66
2022/07/14 04:59:02;;;;;;;0.40;0.30;;;17.10;99.90;;;;;;4429360;32;20134;-66
2022/07/14 05:01:27;;;;;;;0.52;0.47;;;17.10;99.90;;;;;;4428803;32;20069;-66
2022/07/14 05:03:53;;;;;;;1.12;0.68;;;17.20;99.90;;;;;;4421740;32;20082;-66
2022/07/14 05:06:18;;;;;;;0.60;0.60;;;17.20;99.90;;;;;;4434029;32;20060;-66
2022/07/14 05:08:44;;;;;;;0.47;0.47;;;17.20;99.90;;;;;;4425852;32;20086;-66
2022/07/14 05:11:09;;;;;;;3.92;0.57;;;17.20;99.90;;;;;;4415276;32;20078;-66
2022/07/14 05:13:35;;;;;;;0.45;0.45;;;17.20;99.90;;;;;;4428777;32;20508;-66
2022/07/14 05:16:00;;;;;;;0.20;0.20;;;17.10;99.90;;;;;;4422882;32;20073;-66
2022/07/14 05:18:26;;;;;;;0.20;0.20;;;17.20;99.90;;;;;;4427082;32;20573;-66
2022/07/14 05:20:51;;;;;;;0.57;0.57;;;17.20;99.90;;;;;;4421448;32;20054;-66
2022/07/14 05:23:17;;;;;;;0.32;0.32;;;17.30;99.90;;;;;;4413003;32;20077;-66
2022/07/14 05:25:42;;;;;;;1.35;0.88;;;17.30;99.90;;;;;;4430915;32;20061;-66
2022/07/14 05:28:08;;;;;;;0.65;0.65;;;17.30;99.90;;;;;;4430725;32;20069;-66
2022/07/14 05:30:33;;;;;;;0.98;0.65;;;17.30;99.90;;;;;;4429655;32;20065;-66
2022/07/14 05:32:59;;;;;;;0.95;0.75;;;17.20;99.90;;;;;;4422410;32;20074;-66
2022/07/14 05:35:25;;;;;;;0.22;0.22;;;17.10;99.90;;;;;;4422355;32;20069;-66
2022/07/14 05:37:50;;;;;;;0.65;0.65;;;17.30;99.90;;;;;;4419921;32;20085;-65
2022/07/14 05:40:16;;;;;;;1.87;0.65;;;17.30;99.90;;;;;;4445709;32;20120;-66
2022/07/14 05:42:42;;;;;;;0.52;0.52;;;17.30;99.90;;;;;;4441568;32;20457;-65
2022/07/14 05:45:08;;;;;;;0.10;0.10;;;17.30;99.90;;;;;;4437216;32;20445;-65
2022/07/14 05:47:33;;;;;;;0.25;0.25;;;17.30;99.90;;;;;;4444332;32;20076;-65
2022/07/14 05:49:59;;;;;;;0.30;0.30;;;17.40;99.90;;;;;;4445912;32;20182;-65
2022/07/14 05:52:25;;;;;;;10.65;0.52;;;17.40;99.90;;;;;;4430770;32;20073;-65
2022/07/14 05:54:50;;;;;;;6.57;0.57;;;17.50;99.90;;;;;;4417059;32;20082;-65
2022/07/14 05:57:16;;;;;;;0.20;0.20;;;17.70;99.90;;;;;;4431127;32;20060;-65
2022/07/14 05:59:41;;;;;;;1.08;0.82;;;17.70;99.90;;;;;;4447012;32;20061;-65
2022/07/14 06:02:07;;;;;;;3.30;1.10;;;17.70;99.90;;;;;;4437246;32;20086;-65
2022/07/14 06:04:32;;;;;;;0.32;0.32;;;17.70;99.90;;;;;;4424285;32;20418;-65
2022/07/14 06:06:58;;;;;;;0.40;0.40;;;17.80;99.90;;;;;;4432271;32;20068;-65
2022/07/14 06:09:23;;;;;;;2.92;0.60;;;17.80;99.90;;;;;;4446753;32;20085;-65
2022/07/14 06:11:49;;;;;;;0.88;0.52;;;17.90;99.90;;;;;;4430349;32;20065;-65
2022/07/14 06:14:15;;;;;;;1.58;0.95;;;17.80;99.90;;;;;;4436995;32;20407;-65
2022/07/14 06:16:41;;;;;;;0.43;0.43;;;17.80;99.90;;;;;;4425403;32;20101;-65
2022/07/14 06:19:07;;;;;;;1.55;0.73;;;17.80;99.90;;;;;;4431203;32;20061;-65
2022/07/14 06:21:32;;;;;;;0.20;0.20;;;17.80;99.90;;;;;;4407639;32;20696;-66
2022/07/14 06:23:58;;;;;;;1.33;0.55;;;17.80;99.90;;;;;;4409705;32;20089;-66
2022/07/14 06:26:23;;;;;;;7.97;0.73;;;17.70;99.90;;;;;;4427160;32;20119;-66
2022/07/14 06:28:49;;;;;;;0.30;0.30;;;17.70;99.90;;;;;;4431236;32;20524;-65
2022/07/14 06:31:14;;;;;;;1.25;0.60;;;17.80;99.90;;;;;;4423744;32;20149;-66
2022/07/14 06:33:40;;;;;;;0.50;0.50;;;17.90;99.90;;;;;;4420059;32;20128;-66
2022/07/14 06:36:08;;;;;;;0.45;0.28;;;17.90;99.90;;;;;;4429821;32;20080;-66
2022/07/14 06:38:34;;;;;;;0.68;0.68;;;18.00;99.90;;;;;;4429938;32;20366;-66
2022/07/14 06:41:00;;;;;;;0.47;0.47;;;18.20;99.90;;;;;;4416892;32;20073;-66
2022/07/14 06:43:25;;;;;;;0.57;0.30;;;18.30;99.90;;;;;;4422401;32;20070;-66
2022/07/14 06:45:51;;;;;;;0.57;0.57;;;18.40;99.90;;;;;;4417445;32;20121;-66
2022/07/14 06:48:17;;;;;;;0.40;0.40;;;18.50;99.90;;;;;;4446250;32;20565;-66
2022/07/14 06:50:43;;;;;;;0.98;0.90;;;18.60;99.90;;;;;;4441933;32;20073;-66
2022/07/14 06:53:08;;;;;;;0.20;0.20;;;18.40;99.90;;;;;;4427329;32;20069;-64
2022/07/14 06:55:34;;;;;;;0.20;0.20;;;18.40;99.90;;;;;;4436307;32;20069;-65
2022/07/14 06:57:59;;;;;;;2.08;1.83;;;18.30;99.90;;;;;;4446315;32;20116;-64
2022/07/14 07:00:25;;;;;;;0.20;0.20;;;18.40;99.90;;;;;;4443091;32;20077;-65
2022/07/14 07:02:50;;;;;;;0.25;0.25;;;18.50;99.90;;;;;;4434998;32;20061;-65
2022/07/14 07:06:48;;;;;;;0.37;0.37;;;18.60;99.90;;;;;;4439248;32;20555;-65
2022/07/14 07:08:02;;;;;;;0.30;0.30;;;18.70;99.90;;;;;;4432983;32;20073;-65
2022/07/14 07:10:28;;;;;;;2.67;0.60;;;18.80;99.90;;;;;;4432026;32;20078;-65
2022/07/14 07:12:54;;;;;;;0.20;0.20;;;18.80;99.90;;;;;;4426053;32;20323;-65
2022/07/14 07:15:20;;;;;;;0.20;0.20;;;18.90;99.90;;;;;;4419662;32;20478;-64
2022/07/14 07:17:46;;;;;;;0.20;0.20;;;18.90;99.90;;;;;;4422391;32;20402;-65
2022/07/14 07:20:11;;;;;;;0.40;0.40;;;19.00;99.90;;;;;;4415650;32;20095;-65
2022/07/14 07:22:37;;;;;;;0.30;0.30;;;19.10;99.90;;;;;;4395714;32;20505;-64
2022/07/14 07:25:04;;;;;;;0.47;0.47;;;19.00;99.90;;;;;;4417083;32;20076;-66
2022/07/14 07:27:30;;;;;;;0.28;0.28;;;18.90;99.90;;;;;;4416497;32;20085;-65
2022/07/14 07:29:56;;;;;;;0.30;0.30;;;19.00;99.90;;;;;;4430160;32;20069;-65
2022/07/14 07:32:22;;;;;;;0.30;0.30;;;19.30;99.90;;;;;;4419416;32;20078;-64
2022/07/14 07:34:47;;;;;;;0.20;0.20;;;19.40;99.00;;;;;;4430406;32;20085;-64
2022/07/14 07:37:13;;;;;;;0.20;0.20;;;19.40;99.20;;;;;;4431180;32;20147;-65
2022/07/14 07:39:38;;;;;;;0.30;0.30;;;19.50;99.00;;;;;;4431353;32;20061;-64
2022/07/14 07:42:04;;;;;;;0.25;0.25;;;19.60;98.70;;;;;;4443319;32;20516;-64
2022/07/14 07:44:30;;;;;;;0.20;0.20;;;19.70;98.30;;;;;;4434646;32;20065;-65
2022/07/14 07:46:56;;;;;;;0.17;0.17;;;19.70;98.60;;;;;;4441272;32;20061;-65
2022/07/14 07:49:22;;;;;;;3.03;0.82;;;19.90;98.50;;;;;;4429060;32;20395;-65
2022/07/14 07:51:47;;;;;;;1.85;0.60;;;20.00;97.50;;;;;;4403121;32;20112;-65
2022/07/14 07:54:13;;;;;;;2.17;0.40;;;20.10;96.80;;;;;;4413345;32;20076;-65
2022/07/14 07:56:38;;;;;;;3.25;0.95;;;20.20;96.30;;;;;;4443738;32;20520;-65
2022/07/14 07:59:04;;;;;;;0.28;0.20;;;20.20;96.40;;;;;;4445464;32;20073;-65
2022/07/14 08:01:29;;;;;;;0.45;0.45;;;20.10;96.20;;;;;;4438207;32;20085;-65
2022/07/14 08:03:54;;;;;;;0.43;0.43;;;20.20;96.20;;;;;;4433010;32;20109;-64
2022/07/14 08:06:20;;;;;;;0.20;0.20;;;20.30;96.00;;;;;;4444003;32;20085;-64
2022/07/14 08:08:46;;;;;;;0.25;0.25;;;20.30;95.70;;;;;;4445528;32;20064;-65
2022/07/14 08:11:11;;;;;;;0.20;0.20;;;20.30;96.50;;;;;;4444757;32;20069;-65
2022/07/14 08:13:38;;;;;;;0.45;0.45;;;20.30;96.10;;;;;;4434775;32;20098;-65
2022/07/14 08:16:04;;;;;;;0.65;0.62;;;20.40;95.70;;;;;;4435370;32;20580;-65
2022/07/14 08:18:29;;;;;;;0.30;0.30;;;20.20;96.10;;;;;;4431593;32;20583;-65
2022/07/14 08:20:55;;;;;;;0.77;0.35;;;20.40;96.00;;;;;;4425596;32;20116;-65
2022/07/14 08:23:20;;;;;;;0.20;0.20;;;20.70;95.80;;;;;;4394844;32;20391;-65
2022/07/14 08:25:45;;;;;;;0.20;0.20;;;20.70;95.60;;;;;;4421491;32;20069;-66
2022/07/14 08:28:11;;;;;;;6.47;0.52;;;20.70;95.30;;;;;;4429940;32;20082;-66
2022/07/14 08:30:37;;;;;;;14.90;0.35;;;20.70;94.90;;;;;;4425479;32;20544;-66
2022/07/14 08:33:02;;;;;;;5.70;0.82;;;20.80;95.00;;;;;;4418441;32;20150;-65
2022/07/14 08:35:28;;;;;;;0.30;0.30;;;21.00;94.30;;;;;;4437221;32;20069;-66
2022/07/14 08:37:54;;;;;;;3.65;0.52;;;21.20;94.30;;;;;;4430378;32;20085;-66
2022/07/14 08:40:25;;;;;;;0.30;0.30;;;21.20;93.30;;;;;;4430997;32;20460;-66
2022/07/14 08:42:51;;;;;;;;;;;21.30;93.40;;;;;;4425222;32;20417;-65
2022/07/14 08:45:19;;;;;;;0.20;0.20;;;21.30;93.90;;;;;;4433471;32;19956;-65
2022/07/14 08:47:45;;;;;;;0.40;0.40;;;21.50;92.90;;;;;;4442960;32;20350;-65
2022/07/14 08:50:14;;;;;;;0.20;0.20;;;21.40;92.90;;;;;;4444421;32;20096;-65
2022/07/14 08:52:41;;;;;;;0.20;0.20;;;21.60;92.70;;;;;;4409858;32;20545;-65
2022/07/14 08:55:09;;;;;;;0.30;0.30;;;21.50;92.30;;;;;;4433189;32;20061;-65
2022/07/14 08:57:35;;;;;;;0.30;0.30;;;21.40;93.00;;;;;;4430076;32;20544;-65
2022/07/14 09:00:03;;;;;;;0.52;0.52;;;21.30;92.60;;;;;;4429213;32;20053;-65
2022/07/14 09:02:31;;;;;;;0.30;0.30;;;21.30;92.40;;;;;;4420290;32;20509;-65
2022/07/14 09:04:56;;;;;;;0.30;0.30;;;21.40;92.00;;;;;;4436449;32;20096;-65
2022/07/14 09:07:33;;;;;;;0.40;0.40;;;21.50;90.90;;;;;;4444739;32;20123;-65
2022/07/14 09:10:01;;;;;;;13.52;0.45;;;21.50;91.00;;;;;;4429819;32;20134;-65
2022/07/14 09:12:29;;;;;;;0.80;0.75;;;21.50;91.40;;;;;;4439151;32;20497;-65
2022/07/14 09:15:55;;;;;;;0.20;0.20;;;21.50;91.40;;;;;;4420174;32;20057;-66
2022/07/14 09:17:59;;;;;;;0.25;0.25;;;21.60;91.50;;;;;;4420083;32;20068;-66
2022/07/14 09:20:28;;;;;;;0.30;0.30;;;21.80;91.40;;;;;;4414681;32;20061;-66
2022/07/14 09:22:57;;;;;;;0.15;0.15;;;21.90;91.30;;;;;;4396531;32;20058;-65
2022/07/14 09:25:24;;;;;;;0.30;0.30;;;22.10;91.40;;;;;;4420553;32;20081;-66
2022/07/14 09:27:50;;;;;;;0.40;0.40;;;22.10;91.00;;;;;;4444394;32;20142;-66
2022/07/14 09:30:16;;;;;;;0.20;0.20;;;22.20;90.70;;;;;;4441967;32;20418;-64
2022/07/14 09:32:45;;;;;;;0.17;0.17;;;22.30;88.70;;;;;;4432156;32;20579;-66
2022/07/14 09:35:12;;;;;;;0.20;0.20;;;22.40;92.80;;;;;;4426180;32;20093;-65
2022/07/14 09:37:40;;;;;;;0.30;0.30;;;22.30;91.60;;;;;;4427723;32;20065;-64
2022/07/14 09:40:09;;;;;;;0.13;0.13;;;22.30;93.10;;;;;;4427844;32;20585;-63
2022/07/14 09:43:00;;;;;;;1.85;0.70;;;22.50;92.90;;;;;;4397323;32;20121;-63
2022/07/14 09:45:29;;;;;;;0.20;0.20;;;22.70;92.40;;;;;;4418036;32;20162;-63
2022/07/14 09:47:58;;;;;;;0.73;0.57;;;22.80;90.70;;;;;;4442454;32;20073;-63
2022/07/14 09:50:47;;;;;;;0.15;0.15;;;22.80;90.00;;;;;;4415589;32;20065;-63
2022/07/14 09:53:31;;;;;;;0.20;0.20;;;22.80;89.50;;;;;;4397648;32;20057;-63
2022/07/14 09:55:59;;;;;;;0.20;0.20;;;22.90;89.00;;;;;;4440007;32;20672;-63
2022/07/14 09:58:28;;;;;;;0.25;0.25;;;23.00;89.70;;;;;;4432097;32;20090;-63
2022/07/14 10:00:59;;;;;;;0.20;0.20;;;23.20;88.20;;;;;;4442759;32;20069;-63
2022/07/14 10:03:28;;;;;;;0.10;0.10;;;23.40;88.50;;;;;;4421015;32;20599;-63
2022/07/14 10:05:55;;;;;;;1.20;0.68;;;23.60;86.70;;;;;;4429651;32;20134;-63
2022/07/14 10:08:24;;;;;;;0.77;0.17;;;23.60;87.40;;;;;;4432556;32;20072;-63
2022/07/14 10:10:51;;;;;;;0.20;0.20;;;23.80;84.20;;;;;;4431706;32;20422;-63
2022/07/14 10:13:19;;;;;;;0.10;0.10;;;23.40;80.40;;;;;;4424448;32;20524;-63
2022/07/14 10:15:45;;;;;;;0.20;0.20;;;23.30;80.60;;;;;;4436368;32;20521;-63
2022/07/14 10:18:12;;;;;;;1.17;0.82;;;23.20;82.20;;;;;;4444767;32;20489;-63
2022/07/14 10:20:38;;;;;;;0.20;0.20;;;23.40;81.60;;;;;;4428770;32;20053;-63
2022/07/14 10:23:05;;;;;;;0.10;0.10;;;23.60;79.50;;;;;;4410258;32;20478;-63
2022/07/14 10:25:31;;;;;;;0.40;0.40;;;23.80;78.90;;;;;;4422189;32;20120;-64
2022/07/14 10:27:57;;;;;;;0.10;0.10;;;24.00;78.40;;;;;;4429723;32;20081;-63
2022/07/14 10:30:48;;;;;;;0.40;0.40;;;24.20;78.10;;;;;;4427442;32;20057;-63
2022/07/14 10:33:26;;;;;;;0.32;0.32;;;24.20;77.90;;;;;;4392469;32;20089;-63
2022/07/14 10:36:03;;;;;;;0.25;0.25;;;24.30;76.40;;;;;;4429123;32;20080;-63
2022/07/14 10:38:57;;;;;;;0.20;0.20;;;24.40;75.30;;;;;;4445856;32;20185;-63
2022/07/14 10:42:03;;;;;;;0.40;0.30;;;24.60;76.60;;;;;;4433567;32;20064;-63
2022/07/14 10:44:32;;;;;;;0.20;0.20;;;24.90;76.70;;;;;;4413372;32;20073;-63
2022/07/14 10:47:07;;;;;;;0.20;0.20;;;25.00;75.60;;;;;;4441424;32;20061;-63
2022/07/14 10:50:09;;;;;;;0.40;0.30;;;25.30;75.50;;;;;;4428399;32;20077;-64
2022/07/14 10:52:37;;;;;;;0.43;0.43;;;25.30;73.60;;;;;;4399208;32;20119;-63
2022/07/14 10:55:22;;;;;;;8.38;2.17;;;25.40;75.40;;;;;;4396065;32;20062;-63
2022/07/14 10:58:08;;;;;;;0.13;0.13;;;25.60;74.30;;;;;;4416920;32;20164;-64
2022/07/14 11:00:44;;;;;;;0.10;0.10;;;25.50;73.50;;;;;;4426816;32;20069;-63
2022/07/14 11:03:33;;;;;;;0.32;0.32;;;25.70;73.60;;;;;;4421963;32;20371;-63
2022/07/14 11:08:30;;;;;;;0.10;0.10;;;25.90;72.30;;;;;;4444695;32;20124;-64
2022/07/14 11:10:57;;;;;;;0.10;0.10;;;25.80;71.00;;;;;;4444706;32;20551;-64
2022/07/14 11:13:23;;;;;;;0.10;0.10;;;26.00;72.40;;;;;;4436087;32;20431;-63
2022/07/14 11:15:54;;;;;;;0.10;0.10;;;25.90;71.20;;;;;;4435832;32;20065;-63
2022/07/14 11:18:24;;;;;;;0.28;0.28;;;26.40;72.30;;;;;;4428473;32;20069;-64
2022/07/14 11:20:55;;;;;;;1.12;0.30;;;26.70;69.10;;;;;;4436932;32;20148;-63
2022/07/14 11:23:23;;;;;;;0.00;0.00;;;26.60;68.40;;;;;;4423982;32;20057;-63
2022/07/14 11:25:51;;;;;;;0.10;0.10;;;27.00;67.20;;;;;;4425285;32;20572;-63
2022/07/14 11:28:37;;;;;;;0.05;0.05;;;27.20;68.80;;;;;;4446477;32;20073;-63
2022/07/14 11:31:14;;;;;;;0.10;0.10;;;27.40;67.10;;;;;;4439900;32;20073;-63
2022/07/14 11:36:30;;;;;;;0.10;0.10;;;27.70;66.10;;;;;;4432565;32;20508;-63
2022/07/14 11:39:16;;;;;;;0.15;0.15;;;28.20;65.40;;;;;;4446033;32;20501;-63
2022/07/14 11:41:45;;;;;;;0.00;0.00;;;28.60;63.40;;;;;;4432065;32;20081;-63
2022/07/14 11:44:35;;;;;;;0.20;0.20;;;28.40;64.10;;;;;;4432135;32;20639;-63
2022/07/14 11:47:04;;;;;;;0.10;0.10;;;28.20;64.50;;;;;;4429551;32;20069;-64
2022/07/14 11:49:31;;;;;;;1.35;0.55;;;28.50;64.00;;;;;;4429552;32;20128;-64
2022/07/14 11:51:58;;;;;;;0.13;0.13;;;28.50;63.80;;;;;;4418004;32;20518;-63
2022/07/14 11:54:25;;;;;;;0.08;0.08;;;28.90;61.50;;;;;;4427516;32;20076;-64
2022/07/14 11:57:03;;;;;;;0.00;0.00;;;28.80;62.70;;;;;;4431476;32;20120;-64
2022/07/14 11:59:29;;;;;;;0.00;0.00;;;29.00;61.10;;;;;;4430839;32;20554;-63
2022/07/14 12:02:14;;;;;;;0.00;0.00;;;29.10;60.90;;;;;;4421939;32;20426;-63
2022/07/14 12:04:57;;;;;;;0.00;0.00;;;29.60;60.60;;;;;;4422742;32;20076;-63
2022/07/14 12:07:25;;;;;;;0.00;0.00;;;29.40;59.80;;;;;;4417179;32;20084;-63
2022/07/14 12:09:52;;;;;;;0.00;0.00;;;29.50;61.10;;;;;;4444310;32;20069;-63
2022/07/14 12:12:19;;;;;;;2.75;0.10;;;30.00;61.10;;;;;;4441341;32;20080;-64
2022/07/14 12:14:48;;;;;;;1.25;0.43;;;29.70;59.90;;;;;;4418537;32;20081;-63
2022/07/14 12:17:14;;;;;;;0.00;0.00;;;29.80;60.30;;;;;;4440529;32;20119;-62
2022/07/14 12:19:40;;;;;;;0.10;0.10;;;30.30;57.20;;;;;;4430597;32;20069;-62
2022/07/14 12:22:05;;;;;;;5.20;0.75;;;30.60;55.20;;;;;;4429537;32;20069;-62
2022/07/14 12:24:32;;;;;;;0.00;0.00;;;30.20;55.50;;;;;;4413110;32;20442;-62
2022/07/14 12:27:00;;;;;;;0.00;0.00;;;30.40;55.50;;;;;;4430522;32;20069;-63
2022/07/14 12:29:26;;;;;;;0.10;0.10;;;30.30;56.20;;;;;;4418575;32;20131;-63
2022/07/14 12:31:52;;;;;;;0.00;0.00;;;30.50;56.50;;;;;;4420975;32;20072;-63
2022/07/14 12:34:18;;;;;;;0.00;0.00;;;31.00;55.70;;;;;;4435609;32;20065;-63
2022/07/14 12:36:45;;;;;;;0.10;0.10;;;30.70;55.60;;;;;;4444216;32;20081;-63
2022/07/14 12:39:11;;;;;;;0.57;0.30;;;30.60;54.70;;;;;;4444884;32;20065;-63
2022/07/14 12:41:39;;;;;;;4.95;0.30;;;30.10;54.70;;;;;;4442608;32;20057;-62
2022/07/14 12:44:05;;;;;;;0.10;0.10;;;29.90;54.30;;;;;;4419608;32;20491;-63
2022/07/14 12:46:31;;;;;;;0.00;0.00;;;30.40;54.90;;;;;;4410751;32;20090;-63
2022/07/14 12:49:01;;;;;;;3.42;0.90;;;30.70;54.20;;;;;;4443677;32;20090;-63
2022/07/14 12:51:38;;;;;;;0.00;0.00;;;30.80;54.80;;;;;;4406080;32;20069;-63
2022/07/14 12:54:32;;;;;;;0.10;0.10;;;30.90;54.40;;;;;;4396874;32;20505;-63
2022/07/14 12:56:57;;;;;;;0.30;0.20;;;30.80;54.70;;;;;;4421199;32;20164;-63
2022/07/14 12:59:28;;;;;;;0.00;0.00;;;31.10;54.20;;;;;;4443369;32;20072;-63